Řízení letového provozu České republiky
Letiste: LKPD Aktualizace: 25.09.2016 20:08:14  UTC
 METAR LKPD 25.09. 20:00 ...
METAR LKPD 252000Z 08007KT CAVOK 15/05 Q1021 NOSIG =
 TAF LKPD 25.09. 17:00 ...
TAF LKPD 251700Z 2518/2618 VRB02KT CAVOK=